sensor_id;sensor_type;location;lat;lon;timestamp;P1;durP1;ratioP1;P2;durP2;ratioP2
31978;SDS011;18502;43.574;1.276;2023-04-25T05:50:00;0.73;;;0.73;;
31978;SDS011;18502;43.574;1.276;2023-04-25T05:52:26;2.08;;;0.65;;
31978;SDS011;18502;43.574;1.276;2023-04-25T05:54:51;2.90;;;1.42;;
31978;SDS011;18502;43.574;1.276;2023-04-25T05:57:21;0.90;;;0.90;;
31978;SDS011;18502;43.574;1.276;2023-04-25T05:59:50;0.73;;;0.70;;
31978;SDS011;18502;43.574;1.276;2023-04-25T06:02:17;2.17;;;0.90;;
31978;SDS011;18502;43.574;1.276;2023-04-25T06:04:43;2.47;;;0.70;;
31978;SDS011;18502;43.574;1.276;2023-04-25T06:07:09;1.45;;;0.70;;
31978;SDS011;18502;43.574;1.276;2023-04-25T06:09:35;1.30;;;0.77;;
31978;SDS011;18502;43.574;1.276;2023-04-25T06:12:00;1.08;;;0.70;;
31978;SDS011;18502;43.574;1.276;2023-04-25T06:14:26;1.50;;;0.70;;
31978;SDS011;18502;43.574;1.276;2023-04-25T06:16:52;0.93;;;0.52;;
31978;SDS011;18502;43.574;1.276;2023-04-25T06:19:18;1.85;;;0.90;;
31978;SDS011;18502;43.574;1.276;2023-04-25T06:21:44;1.02;;;0.80;;
31978;SDS011;18502;43.574;1.276;2023-04-25T06:24:09;1.15;;;0.80;;
31978;SDS011;18502;43.574;1.276;2023-04-25T06:26:35;1.58;;;0.80;;
31978;SDS011;18502;43.574;1.276;2023-04-25T06:29:01;2.15;;;0.73;;
31978;SDS011;18502;43.574;1.276;2023-04-25T06:31:27;1.40;;;0.68;;
31978;SDS011;18502;43.574;1.276;2023-04-25T06:33:54;0.93;;;0.63;;
31978;SDS011;18502;43.574;1.276;2023-04-25T06:36:20;1.02;;;0.73;;
31978;SDS011;18502;43.574;1.276;2023-04-25T06:41:15;0.70;;;0.60;;
31978;SDS011;18502;43.574;1.276;2023-04-25T06:43:41;1.08;;;0.75;;
31978;SDS011;18502;43.574;1.276;2023-04-25T06:46:07;0.98;;;0.60;;
31978;SDS011;18502;43.574;1.276;2023-04-25T06:48:32;2.15;;;0.70;;
31978;SDS011;18502;43.574;1.276;2023-04-25T06:50:58;1.15;;;0.70;;
31978;SDS011;18502;43.574;1.276;2023-04-25T06:53:24;2.15;;;0.65;;
31978;SDS011;18502;43.574;1.276;2023-04-25T06:55:49;0.93;;;0.63;;
31978;SDS011;18502;43.574;1.276;2023-04-25T06:58:15;1.73;;;0.70;;
31978;SDS011;18502;43.574;1.276;2023-04-25T07:00:41;3.05;;;0.85;;
31978;SDS011;18502;43.574;1.276;2023-04-25T07:03:07;0.55;;;0.55;;
31978;SDS011;18502;43.574;1.276;2023-04-25T07:05:32;5.50;;;0.80;;
31978;SDS011;18502;43.574;1.276;2023-04-25T07:07:58;2.08;;;0.90;;
31978;SDS011;18502;43.574;1.276;2023-04-25T07:10:25;0.90;;;0.90;;
31978;SDS011;18502;43.574;1.276;2023-04-25T07:12:51;0.73;;;0.70;;
31978;SDS011;18502;43.574;1.276;2023-04-25T07:15:16;1.42;;;0.93;;
31978;SDS011;18502;43.574;1.276;2023-04-25T07:17:42;0.60;;;0.60;;
31978;SDS011;18502;43.574;1.276;2023-04-25T07:20:08;4.13;;;1.02;;
31978;SDS011;18502;43.574;1.276;2023-04-25T07:22:35;0.90;;;0.90;;
31978;SDS011;18502;43.574;1.276;2023-04-25T07:25:00;1.98;;;0.60;;
31978;SDS011;18502;43.574;1.276;2023-04-25T07:27:26;1.08;;;0.73;;
31978;SDS011;18502;43.574;1.276;2023-04-25T07:29:52;0.77;;;0.77;;
31978;SDS011;18502;43.574;1.276;2023-04-25T07:32:18;1.15;;;1.05;;
31978;SDS011;18502;43.574;1.276;2023-04-25T07:34:44;1.38;;;0.90;;
31978;SDS011;18502;43.574;1.276;2023-04-25T07:37:10;4.20;;;1.30;;
31978;SDS011;18502;43.574;1.276;2023-04-25T07:39:36;3.40;;;1.95;;
31978;SDS011;18502;43.574;1.276;2023-04-25T07:42:02;3.28;;;0.93;;
31978;SDS011;18502;43.574;1.276;2023-04-25T07:44:28;0.08;;;0.00;;
31978;SDS011;18502;43.574;1.276;2023-04-25T07:46:55;0.40;;;0.00;;
31978;SDS011;18502;43.574;1.276;2023-04-25T07:49:21;0.00;;;0.00;;
31978;SDS011;18502;43.574;1.276;2023-04-25T07:51:47;1.35;;;0.10;;
31978;SDS011;18502;43.574;1.276;2023-04-25T07:54:13;0.47;;;0.00;;
31978;SDS011;18502;43.574;1.276;2023-04-25T07:56:39;0.00;;;0.00;;
31978;SDS011;18502;43.574;1.276;2023-04-25T07:59:05;2.13;;;0.13;;
31978;SDS011;18502;43.574;1.276;2023-04-25T08:01:31;2.35;;;0.43;;
31978;SDS011;18502;43.574;1.276;2023-04-25T08:03:56;1.25;;;0.10;;
31978;SDS011;18502;43.574;1.276;2023-04-25T08:06:22;0.30;;;0.10;;
31978;SDS011;18502;43.574;1.276;2023-04-25T08:08:48;1.23;;;0.10;;
31978;SDS011;18502;43.574;1.276;2023-04-25T08:11:13;0.10;;;0.10;;
31978;SDS011;18502;43.574;1.276;2023-04-25T08:13:39;1.08;;;0.20;;
31978;SDS011;18502;43.574;1.276;2023-04-25T08:16:04;2.80;;;0.10;;
31978;SDS011;18502;43.574;1.276;2023-04-25T08:18:30;1.65;;;0.20;;
31978;SDS011;18502;43.574;1.276;2023-04-25T08:20:56;0.55;;;0.20;;
31978;SDS011;18502;43.574;1.276;2023-04-25T08:23:21;0.98;;;0.28;;
31978;SDS011;18502;43.574;1.276;2023-04-25T08:25:47;0.40;;;0.20;;
31978;SDS011;18502;43.574;1.276;2023-04-25T08:28:13;0.38;;;0.13;;
31978;SDS011;18502;43.574;1.276;2023-04-25T08:30:40;1.13;;;0.30;;
31978;SDS011;18502;43.574;1.276;2023-04-25T08:33:05;0.20;;;0.20;;
31978;SDS011;18502;43.574;1.276;2023-04-25T08:35:31;0.20;;;0.20;;
31978;SDS011;18502;43.574;1.276;2023-04-25T08:37:58;0.20;;;0.20;;
31978;SDS011;18502;43.574;1.276;2023-04-25T08:40:23;0.38;;;0.38;;
31978;SDS011;18502;43.574;1.276;2023-04-25T08:42:55;1.10;;;0.30;;
31978;SDS011;18502;43.574;1.276;2023-04-25T08:45:22;0.38;;;0.20;;
31978;SDS011;18502;43.574;1.276;2023-04-25T08:47:48;1.13;;;0.20;;
31978;SDS011;18502;43.574;1.276;2023-04-25T08:50:17;0.20;;;0.20;;
31978;SDS011;18502;43.574;1.276;2023-04-25T08:52:44;1.55;;;0.20;;
31978;SDS011;18502;43.574;1.276;2023-04-25T08:55:12;0.88;;;0.20;;
31978;SDS011;18502;43.574;1.276;2023-04-25T08:57:38;0.35;;;0.20;;
31978;SDS011;18502;43.574;1.276;2023-04-25T09:00:11;0.25;;;0.25;;
31978;SDS011;18502;43.574;1.276;2023-04-25T09:02:38;0.20;;;0.20;;
31978;SDS011;18502;43.574;1.276;2023-04-25T09:05:05;0.30;;;0.20;;
31978;SDS011;18502;43.574;1.276;2023-04-25T09:07:34;0.50;;;0.45;;
31978;SDS011;18502;43.574;1.276;2023-04-25T09:10:00;0.28;;;0.28;;
31978;SDS011;18502;43.574;1.276;2023-04-25T09:12:28;1.58;;;0.30;;
31978;SDS011;18502;43.574;1.276;2023-04-25T09:17:27;1.75;;;0.20;;
31978;SDS011;18502;43.574;1.276;2023-04-25T09:19:53;1.27;;;0.28;;
31978;SDS011;18502;43.574;1.276;2023-04-25T09:22:19;1.50;;;0.30;;
31978;SDS011;18502;43.574;1.276;2023-04-25T09:24:47;0.32;;;0.22;;
31978;SDS011;18502;43.574;1.276;2023-04-25T09:27:19;2.90;;;0.30;;
31978;SDS011;18502;43.574;1.276;2023-04-25T09:29:50;1.27;;;0.30;;
31978;SDS011;18502;43.574;1.276;2023-04-25T09:32:23;0.63;;;0.20;;
31978;SDS011;18502;43.574;1.276;2023-04-25T09:34:50;0.25;;;0.10;;
31978;SDS011;18502;43.574;1.276;2023-04-25T09:37:17;0.43;;;0.30;;
31978;SDS011;18502;43.574;1.276;2023-04-25T09:39:48;1.17;;;0.20;;
31978;SDS011;18502;43.574;1.276;2023-04-25T09:42:15;0.38;;;0.20;;
31978;SDS011;18502;43.574;1.276;2023-04-25T09:44:42;0.20;;;0.20;;
31978;SDS011;18502;43.574;1.276;2023-04-25T09:47:12;0.20;;;0.20;;
31978;SDS011;18502;43.574;1.276;2023-04-25T09:49:40;0.60;;;0.38;;
31978;SDS011;18502;43.574;1.276;2023-04-25T09:52:16;1.83;;;0.40;;
31978;SDS011;18502;43.574;1.276;2023-04-25T09:54:49;0.85;;;0.57;;
31978;SDS011;18502;43.574;1.276;2023-04-25T09:59:49;1.88;;;1.27;;
31978;SDS011;18502;43.574;1.276;2023-04-25T10:02:17;1.17;;;0.80;;
31978;SDS011;18502;43.574;1.276;2023-04-25T10:04:47;2.17;;;0.55;;
31978;SDS011;18502;43.574;1.276;2023-04-25T10:07:14;1.55;;;0.30;;
31978;SDS011;18502;43.574;1.276;2023-04-25T10:09:40;0.50;;;0.50;;
31978;SDS011;18502;43.574;1.276;2023-04-25T10:12:07;1.25;;;0.60;;
31978;SDS011;18502;43.574;1.276;2023-04-25T10:14:33;1.42;;;0.43;;
31978;SDS011;18502;43.574;1.276;2023-04-25T10:17:00;2.88;;;1.17;;
31978;SDS011;18502;43.574;1.276;2023-04-25T10:19:26;0.43;;;0.43;;
31978;SDS011;18502;43.574;1.276;2023-04-25T10:24:27;0.25;;;0.25;;
31978;SDS011;18502;43.574;1.276;2023-04-25T10:26:53;0.20;;;0.20;;
31978;SDS011;18502;43.574;1.276;2023-04-25T10:29:24;0.28;;;0.10;;
31978;SDS011;18502;43.574;1.276;2023-04-25T10:31:51;0.95;;;0.30;;
31978;SDS011;18502;43.574;1.276;2023-04-25T10:34:17;0.20;;;0.20;;
31978;SDS011;18502;43.574;1.276;2023-04-25T10:36:44;0.43;;;0.30;;
31978;SDS011;18502;43.574;1.276;2023-04-25T10:39:24;1.20;;;0.40;;
31978;SDS011;18502;43.574;1.276;2023-04-25T10:41:53;2.70;;;0.35;;
31978;SDS011;18502;43.574;1.276;2023-04-25T10:44:23;0.68;;;0.55;;
31978;SDS011;18502;43.574;1.276;2023-04-25T10:46:54;0.38;;;0.38;;
31978;SDS011;18502;43.574;1.276;2023-04-25T10:49:30;0.30;;;0.30;;
31978;SDS011;18502;43.574;1.276;2023-04-25T10:57:26;1.25;;;0.45;;
31978;SDS011;18502;43.574;1.276;2023-04-25T11:00:14;1.95;;;0.50;;
31978;SDS011;18502;43.574;1.276;2023-04-25T11:02:51;1.10;;;0.70;;
31978;SDS011;18502;43.574;1.276;2023-04-25T11:05:20;0.35;;;0.35;;
31978;SDS011;18502;43.574;1.276;2023-04-25T11:07:56;1.48;;;0.20;;
31978;SDS011;18502;43.574;1.276;2023-04-25T11:10:30;0.60;;;0.20;;
31978;SDS011;18502;43.574;1.276;2023-04-25T11:12:58;0.38;;;0.22;;
31978;SDS011;18502;43.574;1.276;2023-04-25T11:15:25;0.30;;;0.10;;
31978;SDS011;18502;43.574;1.276;2023-04-25T11:17:51;0.10;;;0.10;;
31978;SDS011;18502;43.574;1.276;2023-04-25T11:20:18;0.52;;;0.50;;
31978;SDS011;18502;43.574;1.276;2023-04-25T11:22:44;0.25;;;0.22;;
31978;SDS011;18502;43.574;1.276;2023-04-25T11:25:11;6.53;;;1.00;;
31978;SDS011;18502;43.574;1.276;2023-04-25T11:27:38;2.60;;;0.40;;
31978;SDS011;18502;43.574;1.276;2023-04-25T11:30:14;0.90;;;0.30;;
31978;SDS011;18502;43.574;1.276;2023-04-25T11:32:40;0.40;;;0.40;;
31978;SDS011;18502;43.574;1.276;2023-04-25T11:35:08;3.55;;;0.85;;
31978;SDS011;18502;43.574;1.276;2023-04-25T11:37:34;0.65;;;0.30;;
31978;SDS011;18502;43.574;1.276;2023-04-25T11:40:00;3.20;;;0.50;;
31978;SDS011;18502;43.574;1.276;2023-04-25T11:42:27;1.33;;;0.75;;
31978;SDS011;18502;43.574;1.276;2023-04-25T11:44:52;1.05;;;0.55;;
31978;SDS011;18502;43.574;1.276;2023-04-25T11:47:18;0.60;;;0.50;;
31978;SDS011;18502;43.574;1.276;2023-04-25T11:49:43;0.40;;;0.40;;
31978;SDS011;18502;43.574;1.276;2023-04-25T11:52:09;0.75;;;0.30;;
31978;SDS011;18502;43.574;1.276;2023-04-25T11:54:35;0.57;;;0.50;;
31978;SDS011;18502;43.574;1.276;2023-04-25T11:57:02;1.15;;;0.63;;
31978;SDS011;18502;43.574;1.276;2023-04-25T11:59:28;3.13;;;0.52;;
31978;SDS011;18502;43.574;1.276;2023-04-25T12:01:54;1.50;;;0.40;;
31978;SDS011;18502;43.574;1.276;2023-04-25T12:04:20;0.50;;;0.50;;
31978;SDS011;18502;43.574;1.276;2023-04-25T12:06:51;0.88;;;0.88;;
31978;SDS011;18502;43.574;1.276;2023-04-25T12:09:19;4.13;;;1.05;;
31978;SDS011;18502;43.574;1.276;2023-04-25T12:11:52;1.00;;;0.80;;
31978;SDS011;18502;43.574;1.276;2023-04-25T12:14:26;0.60;;;0.60;;
31978;SDS011;18502;43.574;1.276;2023-04-25T12:16:57;0.98;;;0.90;;
31978;SDS011;18502;43.574;1.276;2023-04-25T12:21:49;1.40;;;1.30;;
31978;SDS011;18502;43.574;1.276;2023-04-25T12:24:17;1.40;;;1.30;;
31978;SDS011;18502;43.574;1.276;2023-04-25T12:29:26;3.83;;;1.83;;
31978;SDS011;18502;43.574;1.276;2023-04-25T12:31:54;3.65;;;2.40;;
31978;SDS011;18502;43.574;1.276;2023-04-25T12:34:21;1.05;;;0.95;;
31978;SDS011;18502;43.574;1.276;2023-04-25T12:36:48;0.40;;;0.40;;
31978;SDS011;18502;43.574;1.276;2023-04-25T12:39:17;3.50;;;0.60;;
31978;SDS011;18502;43.574;1.276;2023-04-25T12:41:44;1.30;;;1.02;;
31978;SDS011;18502;43.574;1.276;2023-04-25T12:44:12;1.08;;;0.50;;
31978;SDS011;18502;43.574;1.276;2023-04-25T12:46:38;1.40;;;0.32;;
31978;SDS011;18502;43.574;1.276;2023-04-25T12:49:04;2.10;;;0.77;;
31978;SDS011;18502;43.574;1.276;2023-04-25T12:51:33;0.63;;;0.63;;
31978;SDS011;18502;43.574;1.276;2023-04-25T12:54:13;0.57;;;0.57;;
31978;SDS011;18502;43.574;1.276;2023-04-25T12:56:39;0.40;;;0.30;;
31978;SDS011;18502;43.574;1.276;2023-04-25T12:59:05;0.45;;;0.30;;
31978;SDS011;18502;43.574;1.276;2023-04-25T13:01:31;0.45;;;0.45;;
31978;SDS011;18502;43.574;1.276;2023-04-25T13:03:57;0.30;;;0.30;;
31978;SDS011;18502;43.574;1.276;2023-04-25T13:06:23;0.80;;;0.70;;
31978;SDS011;18502;43.574;1.276;2023-04-25T13:08:49;1.95;;;0.73;;
31978;SDS011;18502;43.574;1.276;2023-04-25T13:11:15;3.05;;;0.75;;
31978;SDS011;18502;43.574;1.276;2023-04-25T13:13:40;0.65;;;0.57;;
31978;SDS011;18502;43.574;1.276;2023-04-25T13:16:07;0.60;;;0.60;;
31978;SDS011;18502;43.574;1.276;2023-04-25T13:18:33;1.15;;;0.80;;
31978;SDS011;18502;43.574;1.276;2023-04-25T13:20:59;0.98;;;0.50;;
31978;SDS011;18502;43.574;1.276;2023-04-25T13:23:26;5.00;;;1.80;;
31978;SDS011;18502;43.574;1.276;2023-04-25T13:25:53;17.58;;;2.90;;
31978;SDS011;18502;43.574;1.276;2023-04-25T13:28:20;0.95;;;0.45;;
31978;SDS011;18502;43.574;1.276;2023-04-25T13:30:46;1.00;;;0.47;;
31978;SDS011;18502;43.574;1.276;2023-04-25T13:33:13;2.78;;;1.00;;
31978;SDS011;18502;43.574;1.276;2023-04-25T13:35:39;1.67;;;0.73;;
31978;SDS011;18502;43.574;1.276;2023-04-25T13:38:05;1.95;;;0.70;;
31978;SDS011;18502;43.574;1.276;2023-04-25T13:40:31;0.82;;;0.80;;
31978;SDS011;18502;43.574;1.276;2023-04-25T13:42:57;1.02;;;0.70;;
31978;SDS011;18502;43.574;1.276;2023-04-25T13:45:23;0.50;;;0.50;;
31978;SDS011;18502;43.574;1.276;2023-04-25T13:47:49;0.50;;;0.40;;
31978;SDS011;18502;43.574;1.276;2023-04-25T13:50:15;0.90;;;0.90;;
31978;SDS011;18502;43.574;1.276;2023-04-25T13:52:41;1.58;;;1.27;;
31978;SDS011;18502;43.574;1.276;2023-04-25T13:55:07;4.30;;;3.58;;
31978;SDS011;18502;43.574;1.276;2023-04-25T13:57:34;2.95;;;2.65;;
31978;SDS011;18502;43.574;1.276;2023-04-25T14:00:00;2.63;;;1.17;;
31978;SDS011;18502;43.574;1.276;2023-04-25T14:02:31;0.70;;;0.70;;
31978;SDS011;18502;43.574;1.276;2023-04-25T14:04:56;1.08;;;0.73;;
31978;SDS011;18502;43.574;1.276;2023-04-25T14:07:22;2.47;;;2.28;;
31978;SDS011;18502;43.574;1.276;2023-04-25T14:09:48;2.92;;;2.72;;
31978;SDS011;18502;43.574;1.276;2023-04-25T14:12:13;1.55;;;1.00;;
31978;SDS011;18502;43.574;1.276;2023-04-25T14:14:39;0.60;;;0.60;;
31978;SDS011;18502;43.574;1.276;2023-04-25T14:17:05;0.73;;;0.55;;
31978;SDS011;18502;43.574;1.276;2023-04-25T14:19:31;0.80;;;0.30;;
31978;SDS011;18502;43.574;1.276;2023-04-25T14:21:56;0.82;;;0.60;;
31978;SDS011;18502;43.574;1.276;2023-04-25T14:24:22;1.10;;;0.60;;
31978;SDS011;18502;43.574;1.276;2023-04-25T14:26:48;0.65;;;0.40;;
31978;SDS011;18502;43.574;1.276;2023-04-25T14:29:14;0.38;;;0.30;;
31978;SDS011;18502;43.574;1.276;2023-04-25T14:31:39;1.00;;;0.30;;
31978;SDS011;18502;43.574;1.276;2023-04-25T14:34:05;0.40;;;0.40;;
31978;SDS011;18502;43.574;1.276;2023-04-25T14:36:32;0.32;;;0.32;;
31978;SDS011;18502;43.574;1.276;2023-04-25T14:38:58;0.63;;;0.63;;
31978;SDS011;18502;43.574;1.276;2023-04-25T14:41:24;0.63;;;0.40;;
31978;SDS011;18502;43.574;1.276;2023-04-25T14:43:51;1.50;;;0.40;;
31978;SDS011;18502;43.574;1.276;2023-04-25T14:46:17;0.60;;;0.40;;
31978;SDS011;18502;43.574;1.276;2023-04-25T14:48:44;2.85;;;0.38;;
31978;SDS011;18502;43.574;1.276;2023-04-25T14:51:10;0.77;;;0.70;;
31978;SDS011;18502;43.574;1.276;2023-04-25T14:53:36;0.43;;;0.43;;
31978;SDS011;18502;43.574;1.276;2023-04-25T14:56:02;2.05;;;0.82;;
31978;SDS011;18502;43.574;1.276;2023-04-25T14:58:28;0.98;;;0.50;;
31978;SDS011;18502;43.574;1.276;2023-04-25T15:00:54;2.20;;;0.73;;
31978;SDS011;18502;43.574;1.276;2023-04-25T15:03:20;0.50;;;0.50;;
31978;SDS011;18502;43.574;1.276;2023-04-25T15:05:46;0.75;;;0.32;;
31978;SDS011;18502;43.574;1.276;2023-04-25T15:08:11;1.50;;;0.60;;
31978;SDS011;18502;43.574;1.276;2023-04-25T15:10:37;1.65;;;0.60;;
31978;SDS011;18502;43.574;1.276;2023-04-25T15:13:03;1.20;;;0.70;;
31978;SDS011;18502;43.574;1.276;2023-04-25T15:15:28;1.08;;;0.98;;
31978;SDS011;18502;43.574;1.276;2023-04-25T15:17:54;1.95;;;0.70;;
31978;SDS011;18502;43.574;1.276;2023-04-25T15:20:21;0.60;;;0.60;;
31978;SDS011;18502;43.574;1.276;2023-04-25T15:22:47;0.82;;;0.82;;
31978;SDS011;18502;43.574;1.276;2023-04-25T15:25:14;0.55;;;0.55;;
31978;SDS011;18502;43.574;1.276;2023-04-25T15:27:43;1.75;;;0.98;;
31978;SDS011;18502;43.574;1.276;2023-04-25T15:30:13;3.25;;;1.23;;
31978;SDS011;18502;43.574;1.276;2023-04-25T15:32:43;4.32;;;1.88;;
31978;SDS011;18502;43.574;1.276;2023-04-25T15:35:09;2.30;;;0.90;;
31978;SDS011;18502;43.574;1.276;2023-04-25T15:37:36;1.45;;;1.35;;
31978;SDS011;18502;43.574;1.276;2023-04-25T15:40:04;4.07;;;2.22;;
31978;SDS011;18502;43.574;1.276;2023-04-25T15:42:37;2.83;;;1.10;;
31978;SDS011;18502;43.574;1.276;2023-04-25T15:45:05;1.75;;;1.17;;
31978;SDS011;18502;43.574;1.276;2023-04-25T15:47:32;0.95;;;0.77;;
31978;SDS011;18502;43.574;1.276;2023-04-25T15:49:59;1.30;;;1.02;;
31978;SDS011;18502;43.574;1.276;2023-04-25T15:52:25;0.50;;;0.50;;
31978;SDS011;18502;43.574;1.276;2023-04-25T15:54:51;1.33;;;0.55;;
31978;SDS011;18502;43.574;1.276;2023-04-25T15:57:18;0.60;;;0.60;;
31978;SDS011;18502;43.574;1.276;2023-04-25T15:59:44;0.88;;;0.88;;
31978;SDS011;18502;43.574;1.276;2023-04-25T16:02:11;0.88;;;0.52;;
31978;SDS011;18502;43.574;1.276;2023-04-25T16:04:38;2.03;;;0.90;;
31978;SDS011;18502;43.574;1.276;2023-04-25T16:07:04;0.93;;;0.80;;
31978;SDS011;18502;43.574;1.276;2023-04-25T16:09:30;1.15;;;1.00;;
31978;SDS011;18502;43.574;1.276;2023-04-25T16:11:55;1.20;;;1.10;;
31978;SDS011;18502;43.574;1.276;2023-04-25T16:14:21;0.85;;;0.85;;
31978;SDS011;18502;43.574;1.276;2023-04-25T16:16:47;5.53;;;1.20;;
31978;SDS011;18502;43.574;1.276;2023-04-25T16:19:13;1.45;;;0.68;;
31978;SDS011;18502;43.574;1.276;2023-04-25T16:21:39;2.35;;;0.70;;
31978;SDS011;18502;43.574;1.276;2023-04-25T16:24:06;0.50;;;0.50;;
31978;SDS011;18502;43.574;1.276;2023-04-25T16:26:32;0.60;;;0.60;;
31978;SDS011;18502;43.574;1.276;2023-04-25T16:28:58;0.85;;;0.60;;
31978;SDS011;18502;43.574;1.276;2023-04-25T16:31:24;2.38;;;0.90;;
31978;SDS011;18502;43.574;1.276;2023-04-25T16:33:50;1.17;;;0.82;;
31978;SDS011;18502;43.574;1.276;2023-04-25T16:36:16;2.75;;;0.65;;
31978;SDS011;18502;43.574;1.276;2023-04-25T16:38:41;1.58;;;0.60;;
31978;SDS011;18502;43.574;1.276;2023-04-25T16:41:07;2.38;;;1.02;;
31978;SDS011;18502;43.574;1.276;2023-04-25T16:43:34;1.55;;;0.63;;
31978;SDS011;18502;43.574;1.276;2023-04-25T16:46:00;2.25;;;0.90;;
31978;SDS011;18502;43.574;1.276;2023-04-25T16:48:25;1.38;;;1.00;;
31978;SDS011;18502;43.574;1.276;2023-04-25T16:50:51;1.05;;;0.90;;
31978;SDS011;18502;43.574;1.276;2023-04-25T16:53:17;4.28;;;1.40;;
31978;SDS011;18502;43.574;1.276;2023-04-25T16:55:43;1.27;;;1.17;;
31978;SDS011;18502;43.574;1.276;2023-04-25T16:58:11;2.50;;;1.15;;
31978;SDS011;18502;43.574;1.276;2023-04-25T17:00:38;3.38;;;1.58;;
31978;SDS011;18502;43.574;1.276;2023-04-25T17:03:04;2.38;;;1.40;;
31978;SDS011;18502;43.574;1.276;2023-04-25T17:05:30;4.82;;;1.80;;
31978;SDS011;18502;43.574;1.276;2023-04-25T17:07:56;2.78;;;2.00;;
31978;SDS011;18502;43.574;1.276;2023-04-25T17:10:21;5.03;;;2.38;;
31978;SDS011;18502;43.574;1.276;2023-04-25T17:12:47;4.20;;;2.88;;
31978;SDS011;18502;43.574;1.276;2023-04-25T17:15:13;3.38;;;3.08;;
31978;SDS011;18502;43.574;1.276;2023-04-25T17:17:39;3.38;;;2.42;;
31978;SDS011;18502;43.574;1.276;2023-04-25T17:20:05;3.50;;;2.95;;
31978;SDS011;18502;43.574;1.276;2023-04-25T17:22:33;3.40;;;2.95;;
31978;SDS011;18502;43.574;1.276;2023-04-25T17:25:01;4.63;;;2.60;;
31978;SDS011;18502;43.574;1.276;2023-04-25T17:27:27;5.78;;;3.03;;
31978;SDS011;18502;43.574;1.276;2023-04-25T17:29:53;3.42;;;2.85;;
31978;SDS011;18502;43.574;1.276;2023-04-25T17:32:19;3.30;;;2.30;;
31978;SDS011;18502;43.574;1.276;2023-04-25T17:34:45;4.03;;;2.30;;
31978;SDS011;18502;43.574;1.276;2023-04-25T17:37:12;2.83;;;2.53;;
31978;SDS011;18502;43.574;1.276;2023-04-25T17:39:40;4.78;;;2.60;;
31978;SDS011;18502;43.574;1.276;2023-04-25T17:42:06;3.30;;;2.97;;
31978;SDS011;18502;43.574;1.276;2023-04-25T17:44:32;5.22;;;3.35;;
31978;SDS011;18502;43.574;1.276;2023-04-25T17:46:58;3.95;;;2.83;;
31978;SDS011;18502;43.574;1.276;2023-04-25T17:49:26;3.88;;;2.75;;
31978;SDS011;18502;43.574;1.276;2023-04-25T17:51:51;3.92;;;3.10;;
31978;SDS011;18502;43.574;1.276;2023-04-25T17:54:17;5.65;;;3.17;;
31978;SDS011;18502;43.574;1.276;2023-04-25T17:56:46;5.28;;;3.25;;
31978;SDS011;18502;43.574;1.276;2023-04-25T17:59:12;4.00;;;3.58;;
31978;SDS011;18502;43.574;1.276;2023-04-25T18:01:38;4.82;;;3.95;;
31978;SDS011;18502;43.574;1.276;2023-04-25T18:04:04;5.85;;;5.22;;
31978;SDS011;18502;43.574;1.276;2023-04-25T18:06:30;5.25;;;4.72;;
31978;SDS011;18502;43.574;1.276;2023-04-25T18:08:59;4.97;;;4.20;;
31978;SDS011;18502;43.574;1.276;2023-04-25T18:11:27;4.65;;;3.60;;
31978;SDS011;18502;43.574;1.276;2023-04-25T18:13:54;3.35;;;2.83;;
31978;SDS011;18502;43.574;1.276;2023-04-25T18:16:20;5.18;;;4.30;;
31978;SDS011;18502;43.574;1.276;2023-04-25T18:18:46;6.07;;;4.50;;
31978;SDS011;18502;43.574;1.276;2023-04-25T18:21:17;4.78;;;3.88;;
31978;SDS011;18502;43.574;1.276;2023-04-25T18:23:43;4.97;;;3.70;;
31978;SDS011;18502;43.574;1.276;2023-04-25T18:26:09;7.28;;;4.00;;
31978;SDS011;18502;43.574;1.276;2023-04-25T18:28:36;7.57;;;3.88;;
31978;SDS011;18502;43.574;1.276;2023-04-25T18:31:01;4.85;;;3.85;;
31978;SDS011;18502;43.574;1.276;2023-04-25T18:33:28;5.25;;;3.83;;
31978;SDS011;18502;43.574;1.276;2023-04-25T18:35:54;4.07;;;3.55;;
31978;SDS011;18502;43.574;1.276;2023-04-25T18:38:20;4.85;;;4.07;;
31978;SDS011;18502;43.574;1.276;2023-04-25T18:40:46;9.10;;;4.00;;
31978;SDS011;18502;43.574;1.276;2023-04-25T18:43:13;6.32;;;3.38;;
31978;SDS011;18502;43.574;1.276;2023-04-25T18:45:38;7.35;;;5.30;;
31978;SDS011;18502;43.574;1.276;2023-04-25T18:48:04;22.05;;;12.02;;
31978;SDS011;18502;43.574;1.276;2023-04-25T18:50:29;21.27;;;11.57;;
31978;SDS011;18502;43.574;1.276;2023-04-25T18:52:57;11.15;;;6.50;;
31978;SDS011;18502;43.574;1.276;2023-04-25T18:55:23;17.10;;;8.55;;
31978;SDS011;18502;43.574;1.276;2023-04-25T18:57:50;8.82;;;5.80;;
31978;SDS011;18502;43.574;1.276;2023-04-25T19:00:16;21.95;;;10.80;;
31978;SDS011;18502;43.574;1.276;2023-04-25T19:02:41;54.80;;;24.83;;
31978;SDS011;18502;43.574;1.276;2023-04-25T19:05:07;21.02;;;12.38;;
31978;SDS011;18502;43.574;1.276;2023-04-25T19:07:34;26.40;;;13.70;;
31978;SDS011;18502;43.574;1.276;2023-04-25T19:10:02;46.88;;;26.58;;
31978;SDS011;18502;43.574;1.276;2023-04-25T19:12:28;34.22;;;20.13;;
31978;SDS011;18502;43.574;1.276;2023-04-25T19:14:54;13.93;;;9.23;;
31978;SDS011;18502;43.574;1.276;2023-04-25T19:17:20;14.77;;;7.93;;
31978;SDS011;18502;43.574;1.276;2023-04-25T19:19:46;17.90;;;9.32;;
31978;SDS011;18502;43.574;1.276;2023-04-25T19:22:12;15.15;;;9.18;;
31978;SDS011;18502;43.574;1.276;2023-04-25T19:24:38;12.48;;;6.78;;
31978;SDS011;18502;43.574;1.276;2023-04-25T19:27:04;7.68;;;5.28;;
31978;SDS011;18502;43.574;1.276;2023-04-25T19:29:30;12.02;;;7.75;;
31978;SDS011;18502;43.574;1.276;2023-04-25T19:31:57;16.40;;;9.93;;
31978;SDS011;18502;43.574;1.276;2023-04-25T19:34:24;18.45;;;9.13;;
31978;SDS011;18502;43.574;1.276;2023-04-25T19:36:49;44.85;;;22.33;;
31978;SDS011;18502;43.574;1.276;2023-04-25T19:39:20;37.83;;;18.38;;
31978;SDS011;18502;43.574;1.276;2023-04-25T19:41:46;41.53;;;21.17;;
31978;SDS011;18502;43.574;1.276;2023-04-25T19:44:12;23.17;;;12.65;;
31978;SDS011;18502;43.574;1.276;2023-04-25T19:46:38;14.57;;;8.02;;
31978;SDS011;18502;43.574;1.276;2023-04-25T19:49:04;17.75;;;9.32;;
31978;SDS011;18502;43.574;1.276;2023-04-25T19:51:31;7.78;;;5.88;;
31978;SDS011;18502;43.574;1.276;2023-04-25T19:53:57;6.13;;;4.43;;
31978;SDS011;18502;43.574;1.276;2023-04-25T19:56:23;6.45;;;4.55;;
31978;SDS011;18502;43.574;1.276;2023-04-25T19:58:50;6.13;;;4.72;;
31978;SDS011;18502;43.574;1.276;2023-04-25T20:01:16;5.90;;;4.32;;
31978;SDS011;18502;43.574;1.276;2023-04-25T20:03:42;10.13;;;5.05;;
31978;SDS011;18502;43.574;1.276;2023-04-25T20:06:08;6.90;;;5.30;;
31978;SDS011;18502;43.574;1.276;2023-04-25T20:08:35;5.68;;;4.47;;
31978;SDS011;18502;43.574;1.276;2023-04-25T20:11:01;6.97;;;4.82;;
31978;SDS011;18502;43.574;1.276;2023-04-25T20:13:28;6.90;;;5.18;;
31978;SDS011;18502;43.574;1.276;2023-04-25T20:15:53;5.93;;;4.72;;
31978;SDS011;18502;43.574;1.276;2023-04-25T20:21:07;8.70;;;6.50;;
31978;SDS011;18502;43.574;1.276;2023-04-25T20:23:32;10.25;;;6.85;;
31978;SDS011;18502;43.574;1.276;2023-04-25T20:25:58;9.30;;;7.75;;
31978;SDS011;18502;43.574;1.276;2023-04-25T20:28:24;9.98;;;7.75;;
31978;SDS011;18502;43.574;1.276;2023-04-25T20:30:51;10.23;;;7.75;;
31978;SDS011;18502;43.574;1.276;2023-04-25T20:33:16;11.05;;;7.55;;
31978;SDS011;18502;43.574;1.276;2023-04-25T20:35:42;11.02;;;7.57;;
31978;SDS011;18502;43.574;1.276;2023-04-25T20:38:08;11.57;;;8.15;;
31978;SDS011;18502;43.574;1.276;2023-04-25T20:40:34;12.88;;;8.98;;
31978;SDS011;18502;43.574;1.276;2023-04-25T20:42:59;15.88;;;8.93;;
31978;SDS011;18502;43.574;1.276;2023-04-25T20:45:26;11.68;;;7.18;;
31978;SDS011;18502;43.574;1.276;2023-04-25T20:47:55;7.40;;;5.65;;
31978;SDS011;18502;43.574;1.276;2023-04-25T20:50:22;6.80;;;5.55;;
31978;SDS011;18502;43.574;1.276;2023-04-25T20:52:48;9.23;;;6.53;;
31978;SDS011;18502;43.574;1.276;2023-04-25T20:55:13;7.50;;;6.43;;